sensor_id;sensor_type;location;lat;lon;timestamp;pressure;altitude;pressure_sealevel;temperature;humidity
77281;BME280;66339;47.262;17.144;2024-03-08T00:00:31;100567.00;;;19.48;46.00
77281;BME280;66339;47.262;17.144;2024-03-08T00:03:01;100568.09;;;19.47;45.97
77281;BME280;66339;47.262;17.144;2024-03-08T00:05:32;100565.41;;;19.47;45.99
77281;BME280;66339;47.262;17.144;2024-03-08T00:08:01;100568.09;;;19.47;45.98
77281;BME280;66339;47.262;17.144;2024-03-08T00:10:32;100569.16;;;19.46;45.96
77281;BME280;66339;47.262;17.144;2024-03-08T00:12:59;100563.00;;;19.46;45.95
77281;BME280;66339;47.262;17.144;2024-03-08T00:15:26;100568.38;;;19.46;45.93
77281;BME280;66339;47.262;17.144;2024-03-08T00:17:53;100572.09;;;19.45;45.94
77281;BME280;66339;47.262;17.144;2024-03-08T00:20:20;100566.75;;;19.45;45.95
77281;BME280;66339;47.262;17.144;2024-03-08T00:22:49;100565.13;;;19.44;45.98
77281;BME280;66339;47.262;17.144;2024-03-08T00:25:19;100564.34;;;19.43;45.95
77281;BME280;66339;47.262;17.144;2024-03-08T00:27:46;100569.69;;;19.43;45.92
77281;BME280;66339;47.262;17.144;2024-03-08T00:30:14;100568.09;;;19.42;45.92
77281;BME280;66339;47.262;17.144;2024-03-08T00:32:41;100573.47;;;19.42;45.95
77281;BME280;66339;47.262;17.144;2024-03-08T00:35:12;100563.78;;;19.41;45.93
77281;BME280;66339;47.262;17.144;2024-03-08T00:37:44;100571.84;;;19.41;45.91
77281;BME280;66339;47.262;17.144;2024-03-08T00:40:19;100562.97;;;19.41;45.97
77281;BME280;66339;47.262;17.144;2024-03-08T00:42:46;100570.22;;;19.40;45.94
77281;BME280;66339;47.262;17.144;2024-03-08T00:45:13;100564.06;;;19.40;45.95
77281;BME280;66339;47.262;17.144;2024-03-08T00:47:40;100563.25;;;19.39;46.00
77281;BME280;66339;47.262;17.144;2024-03-08T00:50:10;100561.66;;;19.38;46.05
77281;BME280;66339;47.262;17.144;2024-03-08T00:52:40;100561.66;;;19.38;46.05
77281;BME280;66339;47.262;17.144;2024-03-08T00:55:08;100560.03;;;19.37;46.01
77281;BME280;66339;47.262;17.144;2024-03-08T00:57:35;100557.34;;;19.37;46.06
77281;BME280;66339;47.262;17.144;2024-03-08T01:00:07;100550.38;;;19.36;46.04
77281;BME280;66339;47.262;17.144;2024-03-08T01:02:59;100554.66;;;19.37;46.04
77281;BME280;66339;47.262;17.144;2024-03-08T01:05:27;100556.84;;;19.35;46.02
77281;BME280;66339;47.262;17.144;2024-03-08T01:07:57;100557.91;;;19.34;46.03
77281;BME280;66339;47.262;17.144;2024-03-08T01:10:23;100555.22;;;19.34;46.05
77281;BME280;66339;47.262;17.144;2024-03-08T01:12:50;100562.44;;;19.33;46.06
77281;BME280;66339;47.262;17.144;2024-03-08T01:15:26;100552.00;;;19.32;46.08
77281;BME280;66339;47.262;17.144;2024-03-08T01:17:55;100553.59;;;19.33;46.09
77281;BME280;66339;47.262;17.144;2024-03-08T01:20:27;100547.44;;;19.32;46.07
77281;BME280;66339;47.262;17.144;2024-03-08T01:22:53;100546.63;;;19.32;46.10
77281;BME280;66339;47.262;17.144;2024-03-08T01:25:20;100550.41;;;19.31;46.14
77281;BME280;66339;47.262;17.144;2024-03-08T01:27:53;100550.41;;;19.31;46.16
77281;BME280;66339;47.262;17.144;2024-03-08T01:30:20;100540.75;;;19.30;46.10
77281;BME280;66339;47.262;17.144;2024-03-08T01:32:50;100541.78;;;19.29;46.09
77281;BME280;66339;47.262;17.144;2024-03-08T01:35:18;100533.75;;;19.29;46.08
77281;BME280;66339;47.262;17.144;2024-03-08T01:37:51;100534.03;;;19.27;46.13
77281;BME280;66339;47.262;17.144;2024-03-08T01:40:24;100538.59;;;19.27;46.20
77281;BME280;66339;47.262;17.144;2024-03-08T01:42:54;100534.84;;;19.23;46.21
77281;BME280;66339;47.262;17.144;2024-03-08T01:45:20;100531.87;;;19.24;46.27
77281;BME280;66339;47.262;17.144;2024-03-08T01:47:50;100533.47;;;19.25;46.14
77281;BME280;66339;47.262;17.144;2024-03-08T01:50:17;100534.84;;;19.23;46.39
77281;BME280;66339;47.262;17.144;2024-03-08T01:52:51;100534.31;;;19.26;46.50
77281;BME280;66339;47.262;17.144;2024-03-08T01:55:19;100531.63;;;19.26;46.49
77281;BME280;66339;47.262;17.144;2024-03-08T02:00:35;100531.63;;;19.26;46.52
77281;BME280;66339;47.262;17.144;2024-03-08T02:03:04;100523.59;;;19.26;46.58
77281;BME280;66339;47.262;17.144;2024-03-08T02:05:31;100520.06;;;19.25;46.69
77281;BME280;66339;47.262;17.144;2024-03-08T02:07:58;100527.88;;;19.27;46.89
77281;BME280;66339;47.262;17.144;2024-03-08T02:10:30;100519.03;;;19.26;47.01
77281;BME280;66339;47.262;17.144;2024-03-08T02:12:57;100524.09;;;19.28;47.13
77281;BME280;66339;47.262;17.144;2024-03-08T02:15:49;100523.31;;;19.27;47.03
77281;BME280;66339;47.262;17.144;2024-03-08T02:18:18;100513.38;;;19.28;46.96
77281;BME280;66339;47.262;17.144;2024-03-08T02:20:49;100519.81;;;19.27;46.87
77281;BME280;66339;47.262;17.144;2024-03-08T02:23:23;100517.12;;;19.27;46.82
77281;BME280;66339;47.262;17.144;2024-03-08T02:25:51;100517.12;;;19.27;46.82
77281;BME280;66339;47.262;17.144;2024-03-08T02:28:20;100510.97;;;19.26;46.80
77281;BME280;66339;47.262;17.144;2024-03-08T02:30:50;100514.47;;;19.27;46.78
77281;BME280;66339;47.262;17.144;2024-03-08T02:33:20;100515.53;;;19.26;46.80
77281;BME280;66339;47.262;17.144;2024-03-08T02:35:49;100508.53;;;19.25;46.81
77281;BME280;66339;47.262;17.144;2024-03-08T02:38:16;100512.31;;;19.24;46.78
77281;BME280;66339;47.262;17.144;2024-03-08T02:40:44;100512.31;;;19.24;46.70
77281;BME280;66339;47.262;17.144;2024-03-08T02:43:15;100514.19;;;19.23;46.68
77281;BME280;66339;47.262;17.144;2024-03-08T02:45:49;100516.06;;;19.23;46.70
77281;BME280;66339;47.262;17.144;2024-03-08T02:48:17;100514.47;;;19.22;46.65
77281;BME280;66339;47.262;17.144;2024-03-08T02:50:48;100519.84;;;19.22;46.62
77281;BME280;66339;47.262;17.144;2024-03-08T02:53:16;100519.00;;;19.21;46.61
77281;BME280;66339;47.262;17.144;2024-03-08T02:55:44;100512.84;;;19.21;46.60
77281;BME280;66339;47.262;17.144;2024-03-08T02:58:10;100516.59;;;19.20;46.61
77281;BME280;66339;47.262;17.144;2024-03-08T03:00:40;100510.69;;;19.18;46.55
77281;BME280;66339;47.262;17.144;2024-03-08T03:03:07;100505.06;;;19.19;46.55
77281;BME280;66339;47.262;17.144;2024-03-08T03:08:14;100506.41;;;19.17;46.51
77281;BME280;66339;47.262;17.144;2024-03-08T03:10:43;100500.25;;;19.16;46.49
77281;BME280;66339;47.262;17.144;2024-03-08T03:13:11;100510.16;;;19.16;46.52
77281;BME280;66339;47.262;17.144;2024-03-08T03:15:46;100503.22;;;19.15;46.61
77281;BME280;66339;47.262;17.144;2024-03-08T03:18:13;100497.03;;;19.14;46.71
77281;BME280;66339;47.262;17.144;2024-03-08T03:20:42;100503.22;;;19.15;46.69
77281;BME280;66339;47.262;17.144;2024-03-08T03:23:13;100500.53;;;19.15;46.64
77281;BME280;66339;47.262;17.144;2024-03-08T03:25:42;100504.25;;;19.13;46.60
77281;BME280;66339;47.262;17.144;2024-03-08T03:28:16;100505.34;;;19.12;46.51
77281;BME280;66339;47.262;17.144;2024-03-08T03:30:49;100510.69;;;19.12;46.56
77281;BME280;66339;47.262;17.144;2024-03-08T03:33:16;100512.31;;;19.13;46.49
77281;BME280;66339;47.262;17.144;2024-03-08T03:35:47;100513.38;;;19.12;46.53
77281;BME280;66339;47.262;17.144;2024-03-08T03:38:17;100509.09;;;19.11;46.48
77281;BME280;66339;47.262;17.144;2024-03-08T03:40:47;100507.50;;;19.10;46.43
77281;BME280;66339;47.262;17.144;2024-03-08T03:43:17;100516.59;;;19.09;46.43
77281;BME280;66339;47.262;17.144;2024-03-08T03:45:50;100516.59;;;19.09;46.48
77281;BME280;66339;47.262;17.144;2024-03-08T03:48:20;100521.97;;;19.09;46.44
77281;BME280;66339;47.262;17.144;2024-03-08T03:50:49;100520.34;;;19.08;46.47
77281;BME280;66339;47.262;17.144;2024-03-08T03:53:22;100520.34;;;19.08;46.45
77281;BME280;66339;47.262;17.144;2024-03-08T03:55:53;100518.22;;;19.10;46.42
77281;BME280;66339;47.262;17.144;2024-03-08T03:58:23;100524.63;;;19.09;46.48
77281;BME280;66339;47.262;17.144;2024-03-08T04:00:50;100520.34;;;19.08;46.31
77281;BME280;66339;47.262;17.144;2024-03-08T04:03:20;100525.72;;;19.08;46.41
77281;BME280;66339;47.262;17.144;2024-03-08T04:05:50;100521.16;;;19.09;46.42
77281;BME280;66339;47.262;17.144;2024-03-08T04:08:18;100525.72;;;19.08;46.35
77281;BME280;66339;47.262;17.144;2024-03-08T04:10:48;100523.03;;;19.08;46.39
77281;BME280;66339;47.262;17.144;2024-03-08T04:13:20;100518.75;;;19.07;46.32
77281;BME280;66339;47.262;17.144;2024-03-08T04:15:50;100516.06;;;19.07;46.40
77281;BME280;66339;47.262;17.144;2024-03-08T04:18:20;100517.94;;;19.07;46.41
77281;BME280;66339;47.262;17.144;2024-03-08T04:20:50;100510.97;;;19.06;46.28
77281;BME280;66339;47.262;17.144;2024-03-08T04:23:21;100520.88;;;19.05;46.29
77281;BME280;66339;47.262;17.144;2024-03-08T04:25:48;100520.88;;;19.05;46.31
77281;BME280;66339;47.262;17.144;2024-03-08T04:28:15;100519.28;;;19.04;46.32
77281;BME280;66339;47.262;17.144;2024-03-08T04:30:42;100523.03;;;19.03;46.30
77281;BME280;66339;47.262;17.144;2024-03-08T04:33:13;100518.47;;;19.04;46.27
77281;BME280;66339;47.262;17.144;2024-03-08T04:35:40;100524.13;;;19.02;46.28
77281;BME280;66339;47.262;17.144;2024-03-08T04:38:10;100526.81;;;19.02;46.35
77281;BME280;66339;47.262;17.144;2024-03-08T04:40:39;100524.13;;;19.02;46.29
77281;BME280;66339;47.262;17.144;2024-03-08T04:43:07;100519.81;;;19.01;46.38
77281;BME280;66339;47.262;17.144;2024-03-08T04:45:37;100511.25;;;18.99;46.29
77281;BME280;66339;47.262;17.144;2024-03-08T04:48:04;100511.25;;;18.99;46.40
77281;BME280;66339;47.262;17.144;2024-03-08T04:50:35;100512.84;;;19.00;46.39
77281;BME280;66339;47.262;17.144;2024-03-08T04:55:56;100520.38;;;18.98;46.52
77281;BME280;66339;47.262;17.144;2024-03-08T04:58:28;100515.00;;;18.98;46.53
77281;BME280;66339;47.262;17.144;2024-03-08T05:00:55;100518.72;;;18.97;46.54
77281;BME280;66339;47.262;17.144;2024-03-08T05:03:27;100521.41;;;18.97;46.41
77281;BME280;66339;47.262;17.144;2024-03-08T05:05:57;100522.50;;;18.96;46.37
77281;BME280;66339;47.262;17.144;2024-03-08T05:08:29;100517.12;;;18.96;46.40
77281;BME280;66339;47.262;17.144;2024-03-08T05:13:47;100520.91;;;18.95;46.41
77281;BME280;66339;47.262;17.144;2024-03-08T05:19:11;100519.25;;;18.94;46.37
77281;BME280;66339;47.262;17.144;2024-03-08T05:30:16;100533.22;;;18.91;46.28
77281;BME280;66339;47.262;17.144;2024-03-08T05:47:21;100534.81;;;18.87;46.28
77281;BME280;66339;47.262;17.144;2024-03-08T06:03:21;100546.06;;;18.84;46.46
77281;BME280;66339;47.262;17.144;2024-03-08T06:05:51;100534.56;;;18.83;46.48
77281;BME280;66339;47.262;17.144;2024-03-08T06:08:20;100543.66;;;18.82;46.41
77281;BME280;66339;47.262;17.144;2024-03-08T06:10:47;100541.22;;;18.81;46.66
77281;BME280;66339;47.262;17.144;2024-03-08T06:13:20;100550.06;;;18.81;46.59
77281;BME280;66339;47.262;17.144;2024-03-08T06:15:47;100539.63;;;18.80;46.77
77281;BME280;66339;47.262;17.144;2024-03-08T06:18:18;100550.34;;;18.80;46.73
77281;BME280;66339;47.262;17.144;2024-03-08T06:20:50;100552.75;;;18.81;46.69
77281;BME280;66339;47.262;17.144;2024-03-08T06:23:21;100551.72;;;18.82;46.62
77281;BME280;66339;47.262;17.144;2024-03-08T06:25:51;100550.06;;;18.81;46.59
77281;BME280;66339;47.262;17.144;2024-03-08T06:28:24;100559.75;;;18.82;46.57
77281;BME280;66339;47.262;17.144;2024-03-08T06:30:56;100565.09;;;18.82;46.60
77281;BME280;66339;47.262;17.144;2024-03-08T06:33:23;100572.87;;;18.84;46.67
77281;BME280;66339;47.262;17.144;2024-03-08T06:35:50;100573.66;;;18.84;46.68
77281;BME280;66339;47.262;17.144;2024-03-08T06:38:17;100582.25;;;18.86;46.81
77281;BME280;66339;47.262;17.144;2024-03-08T06:40:47;100577.72;;;18.87;46.84
77281;BME280;66339;47.262;17.144;2024-03-08T06:43:18;100580.91;;;18.89;46.87
77281;BME280;66339;47.262;17.144;2024-03-08T06:45:48;100579.84;;;18.90;46.92
77281;BME280;66339;47.262;17.144;2024-03-08T06:48:18;100585.75;;;18.92;46.93
77281;BME280;66339;47.262;17.144;2024-03-08T06:50:45;100582.00;;;18.93;46.97
77281;BME280;66339;47.262;17.144;2024-03-08T06:53:13;100578.22;;;18.94;46.96
77281;BME280;66339;47.262;17.144;2024-03-08T06:55:43;100577.72;;;18.97;46.95
77281;BME280;66339;47.262;17.144;2024-03-08T06:58:14;100577.72;;;18.97;46.96
77281;BME280;66339;47.262;17.144;2024-03-08T07:00:44;100580.66;;;19.01;47.13
77281;BME280;66339;47.262;17.144;2024-03-08T07:03:15;100587.38;;;19.03;47.15
77281;BME280;66339;47.262;17.144;2024-03-08T07:05:45;100586.03;;;19.06;47.16
77281;BME280;66339;47.262;17.144;2024-03-08T07:08:12;100585.50;;;19.09;47.21
77281;BME280;66339;47.262;17.144;2024-03-08T07:10:42;100584.16;;;19.11;47.22
77281;BME280;66339;47.262;17.144;2024-03-08T07:13:10;100583.66;;;19.15;47.25
77281;BME280;66339;47.262;17.144;2024-03-08T07:15:37;100585.78;;;19.18;47.24
77281;BME280;66339;47.262;17.144;2024-03-08T07:18:04;100584.44;;;19.20;47.34
77281;BME280;66339;47.262;17.144;2024-03-08T07:20:31;100593.28;;;19.21;47.43
77281;BME280;66339;47.262;17.144;2024-03-08T07:22:59;100591.16;;;19.23;47.36
77281;BME280;66339;47.262;17.144;2024-03-08T07:25:26;100598.69;;;19.26;47.43
77281;BME280;66339;47.262;17.144;2024-03-08T07:27:53;100595.44;;;19.29;47.26
77281;BME280;66339;47.262;17.144;2024-03-08T07:30:24;100589.53;;;19.32;47.36
77281;BME280;66339;47.262;17.144;2024-03-08T07:32:55;100598.16;;;19.34;47.28
77281;BME280;66339;47.262;17.144;2024-03-08T07:35:22;100596.78;;;19.36;47.29
77281;BME280;66339;47.262;17.144;2024-03-08T07:37:49;100594.66;;;19.38;47.33
77281;BME280;66339;47.262;17.144;2024-03-08T07:40:16;100598.66;;;19.41;47.36
77281;BME280;66339;47.262;17.144;2024-03-08T07:42:44;100598.12;;;19.44;47.18
77281;BME280;66339;47.262;17.144;2024-03-08T07:45:11;100604.56;;;19.48;47.00
77281;BME280;66339;47.262;17.144;2024-03-08T07:47:41;100604.03;;;19.51;46.97
77281;BME280;66339;47.262;17.144;2024-03-08T07:50:09;100603.50;;;19.54;46.92
77281;BME280;66339;47.262;17.144;2024-03-08T07:52:38;100598.66;;;19.56;46.78
77281;BME280;66339;47.262;17.144;2024-03-08T07:55:06;100601.59;;;19.60;46.69
77281;BME280;66339;47.262;17.144;2024-03-08T07:57:33;100598.72;;;19.61;46.61
77281;BME280;66339;47.262;17.144;2024-03-08T08:00:07;100604.59;;;19.64;46.67
77281;BME280;66339;47.262;17.144;2024-03-08T08:02:35;100598.97;;;19.65;46.70
77281;BME280;66339;47.262;17.144;2024-03-08T08:05:06;100594.94;;;19.68;46.72
77281;BME280;66339;47.262;17.144;2024-03-08T08:07:33;100593.84;;;19.69;46.97
77281;BME280;66339;47.262;17.144;2024-03-08T08:10:00;100598.97;;;19.70;46.92
77281;BME280;66339;47.262;17.144;2024-03-08T08:12:30;100600.28;;;19.73;43.33
77281;BME280;66339;47.262;17.144;2024-03-08T08:15:02;100593.34;;;19.61;41.76
77281;BME280;66339;47.262;17.144;2024-03-08T08:17:32;100595.44;;;19.59;44.50
77281;BME280;66339;47.262;17.144;2024-03-08T08:20:00;100599.22;;;19.58;44.91
77281;BME280;66339;47.262;17.144;2024-03-08T08:22:27;100595.44;;;19.59;45.11
77281;BME280;66339;47.262;17.144;2024-03-08T08:24:53;100600.31;;;19.62;45.38
77281;BME280;66339;47.262;17.144;2024-03-08T08:27:23;100600.03;;;19.64;45.89
77281;BME280;66339;47.262;17.144;2024-03-08T08:29:50;100594.41;;;19.66;46.29
77281;BME280;66339;47.262;17.144;2024-03-08T08:32:21;100587.97;;;19.67;46.60
77281;BME280;66339;47.262;17.144;2024-03-08T08:34:48;100590.66;;;19.67;46.89
77281;BME280;66339;47.262;17.144;2024-03-08T08:37:15;100593.31;;;19.67;47.24
77281;BME280;66339;47.262;17.144;2024-03-08T08:39:46;100587.97;;;19.67;47.11
77281;BME280;66339;47.262;17.144;2024-03-08T08:42:13;100598.69;;;19.67;48.20
77281;BME280;66339;47.262;17.144;2024-03-08T08:44:47;100595.47;;;19.70;48.43
77281;BME280;66339;47.262;17.144;2024-03-08T08:47:17;100593.31;;;19.72;48.68
77281;BME280;66339;47.262;17.144;2024-03-08T08:49:48;100604.59;;;19.74;48.69
77281;BME280;66339;47.262;17.144;2024-03-08T08:52:22;100598.94;;;19.75;48.02
77281;BME280;66339;47.262;17.144;2024-03-08T08:54:49;100596.81;;;19.77;48.58
77281;BME280;66339;47.262;17.144;2024-03-08T08:57:19;100598.12;;;19.80;48.71
77281;BME280;66339;47.262;17.144;2024-03-08T08:59:48;100595.44;;;19.80;48.86
77281;BME280;66339;47.262;17.144;2024-03-08T09:02:16;100594.09;;;19.82;48.65
77281;BME280;66339;47.262;17.144;2024-03-08T09:04:47;100595.47;;;19.85;48.87
77281;BME280;66339;47.262;17.144;2024-03-08T09:07:14;100599.75;;;19.86;48.75
77281;BME280;66339;47.262;17.144;2024-03-08T09:09:42;100590.59;;;19.87;48.54
77281;BME280;66339;47.262;17.144;2024-03-08T09:12:15;100591.41;;;19.87;48.58
77281;BME280;66339;47.262;17.144;2024-03-08T09:14:42;100595.44;;;19.90;48.43
77281;BME280;66339;47.262;17.144;2024-03-08T09:17:12;100595.44;;;19.90;48.77
77281;BME280;66339;47.262;17.144;2024-03-08T09:19:41;100602.41;;;19.91;48.79
77281;BME280;66339;47.262;17.144;2024-03-08T09:22:11;100599.72;;;19.91;48.75
77281;BME280;66339;47.262;17.144;2024-03-08T09:24:42;100593.28;;;19.92;48.87
77281;BME280;66339;47.262;17.144;2024-03-08T09:27:12;100595.69;;;19.94;48.77
77281;BME280;66339;47.262;17.144;2024-03-08T09:29:39;100592.75;;;19.95;47.92
77281;BME280;66339;47.262;17.144;2024-03-08T09:32:09;100591.12;;;19.94;47.96
77281;BME280;66339;47.262;17.144;2024-03-08T09:34:37;100596.78;;;19.93;48.07
77281;BME280;66339;47.262;17.144;2024-03-08T09:37:07;100595.97;;;19.92;48.07
77281;BME280;66339;47.262;17.144;2024-03-08T09:39:37;100594.34;;;19.91;47.99
77281;BME280;66339;47.262;17.144;2024-03-08T09:42:04;100597.03;;;19.91;48.13
77281;BME280;66339;47.262;17.144;2024-03-08T09:44:34;100599.22;;;19.89;48.40
77281;BME280;66339;47.262;17.144;2024-03-08T09:47:01;100595.44;;;19.90;48.57
77281;BME280;66339;47.262;17.144;2024-03-08T09:49:29;100588.47;;;19.89;48.44
77281;BME280;66339;47.262;17.144;2024-03-08T09:51:57;100583.09;;;19.89;48.55
77281;BME280;66339;47.262;17.144;2024-03-08T09:54:34;100587.38;;;19.90;48.49
77281;BME280;66339;47.262;17.144;2024-03-08T09:57:05;100583.91;;;19.90;48.54
77281;BME280;66339;47.262;17.144;2024-03-08T09:59:36;100582.00;;;19.90;48.77
77281;BME280;66339;47.262;17.144;2024-03-08T10:02:03;100586.31;;;19.91;48.70
77281;BME280;66339;47.262;17.144;2024-03-08T10:04:30;100580.94;;;19.91;48.66
77281;BME280;66339;47.262;17.144;2024-03-08T10:07:01;100585.22;;;19.92;48.56
77281;BME280;66339;47.262;17.144;2024-03-08T10:09:28;100587.38;;;19.95;48.50
77281;BME280;66339;47.262;17.144;2024-03-08T10:11:58;100589.78;;;19.97;48.45
77281;BME280;66339;47.262;17.144;2024-03-08T10:14:25;100591.12;;;19.99;48.42
77281;BME280;66339;47.262;17.144;2024-03-08T10:16:57;100589.22;;;20.00;48.40
77281;BME280;66339;47.262;17.144;2024-03-08T10:19:29;100584.41;;;20.02;48.39
77281;BME280;66339;47.262;17.144;2024-03-08T10:21:59;100587.88;;;20.02;48.35
77281;BME280;66339;47.262;17.144;2024-03-08T10:24:26;100584.12;;;20.03;48.29
77281;BME280;66339;47.262;17.144;2024-03-08T10:27:02;100592.72;;;20.05;48.18
77281;BME280;66339;47.262;17.144;2024-03-08T10:29:28;100580.38;;;20.04;48.08
77281;BME280;66339;47.262;17.144;2024-03-08T10:31:55;100578.22;;;20.06;48.02
77281;BME280;66339;47.262;17.144;2024-03-08T10:34:25;100572.84;;;20.06;47.86
77281;BME280;66339;47.262;17.144;2024-03-08T10:36:52;100572.31;;;20.09;47.84
77281;BME280;66339;47.262;17.144;2024-03-08T10:39:24;100572.81;;;20.11;47.77
77281;BME280;66339;47.262;17.144;2024-03-08T10:41:58;100575.75;;;20.15;47.82
77281;BME280;66339;47.262;17.144;2024-03-08T10:47:03;100573.09;;;20.20;47.70
77281;BME280;66339;47.262;17.144;2024-03-08T10:49:47;100559.37;;;20.22;47.64
77281;BME280;66339;47.262;17.144;2024-03-08T10:52:16;100557.19;;;20.24;47.58
77281;BME280;66339;47.262;17.144;2024-03-08T10:54:45;100565.00;;;20.25;47.35
77281;BME280;66339;47.262;17.144;2024-03-08T10:57:17;100560.44;;;20.26;47.36
77281;BME280;66339;47.262;17.144;2024-03-08T10:59:47;100560.44;;;20.26;47.24
77281;BME280;66339;47.262;17.144;2024-03-08T11:02:18;100555.84;;;20.26;47.20
77281;BME280;66339;47.262;17.144;2024-03-08T11:04:53;100556.66;;;20.27;47.17
77281;BME280;66339;47.262;17.144;2024-03-08T11:07:22;100551.28;;;20.27;47.14
77281;BME280;66339;47.262;17.144;2024-03-08T11:09:50;100557.44;;;20.27;47.13
77281;BME280;66339;47.262;17.144;2024-03-08T11:12:20;100548.34;;;20.28;47.00
77281;BME280;66339;47.262;17.144;2024-03-08T11:14:58;100541.06;;;20.29;46.96
77281;BME280;66339;47.262;17.144;2024-03-08T11:19:56;100538.37;;;20.29;47.26
77281;BME280;66339;47.262;17.144;2024-03-08T11:22:27;100540.00;;;20.30;47.57
77281;BME280;66339;47.262;17.144;2024-03-08T11:24:58;100533.03;;;20.29;47.51
77281;BME280;66339;47.262;17.144;2024-03-08T11:27:28;100529.25;;;20.30;47.49
77281;BME280;66339;47.262;17.144;2024-03-08T11:30:04;100529.25;;;20.30;47.70
77281;BME280;66339;47.262;17.144;2024-03-08T11:32:34;100531.94;;;20.30;48.09
77281;BME280;66339;47.262;17.144;2024-03-08T11:35:01;100526.56;;;20.30;48.86
77281;BME280;66339;47.262;17.144;2024-03-08T11:37:33;100528.44;;;20.29;48.55
77281;BME280;66339;47.262;17.144;2024-03-08T11:40:11;100522.28;;;20.29;48.28
77281;BME280;66339;47.262;17.144;2024-03-08T11:42:43;100520.69;;;20.28;48.36
77281;BME280;66339;47.262;17.144;2024-03-08T11:45:10;100519.03;;;20.27;48.31
77281;BME280;66339;47.262;17.144;2024-03-08T11:47:49;100512.06;;;20.26;48.46
77281;BME280;66339;47.262;17.144;2024-03-08T11:50:17;100513.16;;;20.25;48.52
77281;BME280;66339;47.262;17.144;2024-03-08T11:52:43;100509.69;;;20.24;48.65
77281;BME280;66339;47.262;17.144;2024-03-08T11:55:13;100507.25;;;20.23;48.69
77281;BME280;66339;47.262;17.144;2024-03-08T11:57:44;100512.63;;;20.23;48.76
77281;BME280;66339;47.262;17.144;2024-03-08T12:00:14;100511.03;;;20.22;48.74
77281;BME280;66339;47.262;17.144;2024-03-08T12:02:42;100502.41;;;20.20;48.81
77281;BME280;66339;47.262;17.144;2024-03-08T12:05:09;100509.44;;;20.21;48.84
77281;BME280;66339;47.262;17.144;2024-03-08T12:07:36;100506.75;;;20.21;48.93
77281;BME280;66339;47.262;17.144;2024-03-08T12:10:19;100493.31;;;20.21;48.94
77281;BME280;66339;47.262;17.144;2024-03-08T12:12:47;100496.50;;;20.23;48.92
77281;BME280;66339;47.262;17.144;2024-03-08T12:15:15;100494.91;;;20.22;48.84
77281;BME280;66339;47.262;17.144;2024-03-08T12:17:42;100491.13;;;20.23;48.90
77281;BME280;66339;47.262;17.144;2024-03-08T12:20:16;100491.13;;;20.23;48.91
77281;BME280;66339;47.262;17.144;2024-03-08T12:22:46;100485.75;;;20.23;48.99
77281;BME280;66339;47.262;17.144;2024-03-08T12:25:13;100488.19;;;20.24;48.85
77281;BME280;66339;47.262;17.144;2024-03-08T12:27:41;100481.72;;;20.25;48.64
77281;BME280;66339;47.262;17.144;2024-03-08T12:35:20;100475.56;;;20.25;48.34
77281;BME280;66339;47.262;17.144;2024-03-08T12:37:56;100474.47;;;20.26;48.35
77281;BME280;66339;47.262;17.144;2024-03-08T12:40:30;100479.84;;;20.26;48.13
77281;BME280;66339;47.262;17.144;2024-03-08T12:43:03;100478.25;;;20.25;48.52
77281;BME280;66339;47.262;17.144;2024-03-08T12:45:33;100476.63;;;20.24;48.65
77281;BME280;66339;47.262;17.144;2024-03-08T12:48:03;100469.66;;;20.23;48.81
77281;BME280;66339;47.262;17.144;2024-03-08T12:50:29;100471.25;;;20.24;48.85
77281;BME280;66339;47.262;17.144;2024-03-08T12:52:56;100465.88;;;20.24;48.90
77281;BME280;66339;47.262;17.144;2024-03-08T12:55:26;100470.44;;;20.23;49.04
77281;BME280;66339;47.262;17.144;2024-03-08T12:57:56;100476.63;;;20.24;48.99
77281;BME280;66339;47.262;17.144;2024-03-08T13:00:23;100472.34;;;20.23;49.03
77281;BME280;66339;47.262;17.144;2024-03-08T13:02:52;100468.06;;;20.22;49.08
77281;BME280;66339;47.262;17.144;2024-03-08T13:05:22;100462.69;;;20.22;49.02
77281;BME280;66339;47.262;17.144;2024-03-08T13:07:49;100461.06;;;20.21;48.88
77281;BME280;66339;47.262;17.144;2024-03-08T13:10:16;100462.69;;;20.22;48.87
77281;BME280;66339;47.262;17.144;2024-03-08T13:12:43;100462.69;;;20.22;48.84
77281;BME280;66339;47.262;17.144;2024-03-08T13:15:15;100458.41;;;20.21;48.99
77281;BME280;66339;47.262;17.144;2024-03-08T13:17:49;100460.28;;;20.20;48.80
77281;BME280;66339;47.262;17.144;2024-03-08T13:20:16;100464.03;;;20.19;48.72
77281;BME280;66339;47.262;17.144;2024-03-08T13:22:53;100452.47;;;20.19;48.71
77281;BME280;66339;47.262;17.144;2024-03-08T13:25:21;100445.50;;;20.18;48.72
77281;BME280;66339;47.262;17.144;2024-03-08T13:27:51;100450.87;;;20.18;48.58
77281;BME280;66339;47.262;17.144;2024-03-08T13:30:22;100443.91;;;20.17;48.58
77281;BME280;66339;47.262;17.144;2024-03-08T13:32:51;100443.91;;;20.17;48.55
77281;BME280;66339;47.262;17.144;2024-03-08T13:35:18;100446.06;;;20.15;48.50
77281;BME280;66339;47.262;17.144;2024-03-08T13:37:45;100443.38;;;20.15;48.60
77281;BME280;66339;47.262;17.144;2024-03-08T13:40:12;100436.91;;;20.16;48.47
77281;BME280;66339;47.262;17.144;2024-03-08T13:42:42;100439.09;;;20.14;48.41
77281;BME280;66339;47.262;17.144;2024-03-08T13:45:09;100434.53;;;20.14;48.40
77281;BME280;66339;47.262;17.144;2024-03-08T13:47:36;100433.72;;;20.14;48.33
77281;BME280;66339;47.262;17.144;2024-03-08T13:50:02;100426.75;;;20.13;48.35
77281;BME280;66339;47.262;17.144;2024-03-08T13:52:32;100437.50;;;20.13;48.29